createdAt,value
2023-02-15T00:01:58.786Z,35.47
2023-02-15T00:04:46.509Z,34.28
2023-02-15T00:09:41.462Z,34.17
2023-02-15T00:12:09.376Z,30.00
2023-02-15T00:14:36.210Z,32.10
2023-02-15T00:17:03.059Z,28.33
2023-02-15T00:19:30.305Z,28.05
2023-02-15T00:21:57.245Z,28.98
2023-02-15T00:24:24.173Z,31.15
2023-02-15T00:26:51.053Z,44.72
2023-02-15T00:29:19.633Z,45.55
2023-02-15T00:31:50.058Z,47.67
2023-02-15T00:34:21.118Z,38.22
2023-02-15T00:36:50.162Z,43.40
2023-02-15T00:39:18.313Z,45.92
2023-02-15T00:41:46.391Z,40.22
2023-02-15T00:44:16.315Z,45.50
2023-02-15T00:46:43.352Z,43.20
2023-02-15T00:49:11.255Z,46.63
2023-02-15T00:54:05.829Z,38.20
2023-02-15T00:56:32.913Z,39.13
2023-02-15T00:59:00.102Z,44.13
2023-02-15T01:01:27.568Z,41.17
2023-02-15T01:03:54.545Z,37.65
2023-02-15T01:06:21.614Z,41.70
2023-02-15T01:08:51.338Z,42.05
2023-02-15T01:11:23.031Z,50.58
2023-02-15T01:13:53.319Z,63.83
2023-02-15T01:16:20.806Z,61.72
2023-02-15T01:18:48.464Z,56.45
2023-02-15T01:21:24.927Z,51.13
2023-02-15T01:23:52.403Z,53.40
2023-02-15T01:26:19.552Z,69.45
2023-02-15T01:28:46.865Z,61.97
2023-02-15T01:31:19.146Z,71.72
2023-02-15T01:33:47.694Z,58.97
2023-02-15T01:36:15.426Z,49.85
2023-02-15T01:38:42.679Z,54.65
2023-02-15T01:41:23.831Z,40.67
2023-02-15T01:43:57.040Z,52.22
2023-02-15T01:46:29.850Z,52.13
2023-02-15T01:49:06.140Z,57.58
2023-02-15T01:51:37.074Z,59.13
2023-02-15T01:54:12.957Z,58.20
2023-02-15T01:56:41.865Z,56.13
2023-02-15T01:59:15.602Z,61.08
2023-02-15T02:01:42.598Z,63.70
2023-02-15T02:04:19.155Z,60.23
2023-02-15T02:06:48.968Z,54.72
2023-02-15T02:09:16.193Z,55.67
2023-02-15T02:11:46.387Z,54.60
2023-02-15T02:14:13.794Z,60.67
2023-02-15T02:16:48.707Z,64.57
2023-02-15T02:19:34.150Z,63.88
2023-02-15T02:22:03.739Z,64.95
2023-02-15T02:24:57.186Z,74.20
2023-02-15T02:27:57.748Z,89.85
2023-02-15T02:30:50.072Z,87.28
2023-02-15T02:33:45.049Z,114.72
2023-02-15T02:36:32.564Z,119.82
2023-02-15T02:39:10.958Z,136.00
2023-02-15T02:41:42.384Z,130.02
2023-02-15T02:44:19.166Z,99.10
2023-02-15T02:46:54.923Z,129.80
2023-02-15T02:49:34.905Z,123.88
2023-02-15T02:52:05.360Z,148.80
2023-02-15T02:54:35.588Z,131.90
2023-02-15T02:57:07.445Z,200.30
2023-02-15T02:59:39.945Z,164.85
2023-02-15T03:02:18.695Z,208.27
2023-02-15T03:04:50.271Z,168.63
2023-02-15T03:07:22.929Z,168.80
2023-02-15T03:09:54.086Z,165.27
2023-02-15T03:12:25.142Z,173.25
2023-02-15T03:14:59.174Z,128.98
2023-02-15T03:17:29.862Z,131.70
2023-02-15T03:20:01.777Z,158.60
2023-02-15T03:22:37.786Z,118.00
2023-02-15T03:25:16.376Z,130.32
2023-02-15T03:27:50.644Z,167.48
2023-02-15T03:30:21.830Z,288.02
2023-02-15T03:32:50.707Z,249.32
2023-02-15T03:35:17.703Z,166.20
2023-02-15T03:38:28.574Z,141.13
2023-02-15T03:41:12.647Z,123.40
2023-02-15T03:43:57.808Z,183.95
2023-02-15T03:46:28.876Z,188.82
2023-02-15T03:49:02.250Z,89.53
2023-02-15T03:51:36.358Z,112.05
2023-02-15T03:54:39.302Z,110.35
2023-02-15T03:57:28.708Z,115.50
2023-02-15T04:00:13.979Z,134.70
2023-02-15T04:03:16.922Z,143.57
2023-02-15T04:05:45.565Z,98.63
2023-02-15T04:08:13.355Z,114.68
2023-02-15T04:10:57.150Z,78.70
2023-02-15T04:13:35.061Z,90.68
2023-02-15T04:16:05.500Z,110.53
2023-02-15T04:18:55.796Z,111.90
2023-02-15T04:21:43.033Z,121.75
2023-02-15T04:24:29.125Z,121.95
2023-02-15T04:26:59.591Z,92.85
2023-02-15T04:29:27.646Z,109.55
2023-02-15T04:34:22.616Z,106.18
2023-02-15T04:36:52.931Z,153.25
2023-02-15T04:39:20.284Z,125.85
2023-02-15T04:41:48.596Z,114.32
2023-02-15T04:44:15.849Z,143.27
2023-02-15T04:46:42.622Z,135.23
2023-02-15T04:49:09.945Z,184.95
2023-02-15T04:51:36.795Z,196.40
2023-02-15T04:54:03.696Z,152.95
2023-02-15T04:56:31.055Z,181.15
2023-02-15T04:58:58.225Z,167.43
2023-02-15T05:01:25.078Z,172.20
2023-02-15T05:03:54.080Z,150.73
2023-02-15T05:06:20.850Z,144.57
2023-02-15T05:08:47.782Z,136.07
2023-02-15T05:11:14.569Z,159.25
2023-02-15T05:13:41.578Z,181.57
2023-02-15T05:16:08.659Z,164.30
2023-02-15T05:18:35.600Z,152.70
2023-02-15T05:21:02.361Z,134.02
2023-02-15T05:23:29.533Z,148.25
2023-02-15T05:26:15.399Z,117.60
2023-02-15T05:28:42.217Z,106.78
2023-02-15T05:31:13.673Z,124.88
2023-02-15T05:33:41.689Z,130.52
2023-02-15T05:36:09.220Z,115.85
2023-02-15T05:38:38.612Z,97.85
2023-02-15T05:41:10.111Z,112.05
2023-02-15T05:43:37.478Z,147.25
2023-02-15T05:46:05.726Z,114.43
2023-02-15T05:48:33.577Z,93.03
2023-02-15T05:51:17.805Z,127.93
2023-02-15T05:53:44.662Z,99.60
2023-02-15T05:56:12.914Z,94.55
2023-02-15T05:58:41.858Z,89.03
2023-02-15T06:01:10.016Z,92.78
2023-02-15T06:03:36.917Z,81.85
2023-02-15T06:06:05.470Z,97.03
2023-02-15T06:08:33.313Z,79.65
2023-02-15T06:11:00.639Z,83.10
2023-02-15T06:13:27.866Z,82.47
2023-02-15T06:15:54.740Z,75.80
2023-02-15T06:18:21.859Z,88.00
2023-02-15T06:20:49.225Z,72.30
2023-02-15T06:23:16.626Z,88.32
2023-02-15T06:25:44.916Z,72.50
2023-02-15T06:28:11.804Z,77.22
2023-02-15T06:30:38.559Z,80.63
2023-02-15T06:33:05.308Z,75.40
2023-02-15T06:35:35.033Z,64.57
2023-02-15T06:38:01.847Z,76.20
2023-02-15T06:40:28.688Z,61.97
2023-02-15T06:42:55.530Z,67.97
2023-02-15T06:45:22.292Z,66.53
2023-02-15T06:47:49.134Z,64.05
2023-02-15T06:50:16.045Z,71.95
2023-02-15T06:52:42.875Z,61.03
2023-02-15T06:55:09.819Z,57.53
2023-02-15T06:57:36.591Z,70.82
2023-02-15T07:00:05.844Z,55.65
2023-02-15T07:02:33.136Z,75.22
2023-02-15T07:05:00.386Z,60.05
2023-02-15T07:07:27.250Z,65.10
2023-02-15T07:09:54.016Z,69.72
2023-02-15T07:12:39.285Z,61.42
2023-02-15T07:15:07.230Z,62.78
2023-02-15T07:20:15.161Z,60.78
2023-02-15T07:22:41.980Z,69.05
2023-02-15T07:25:11.249Z,64.22
2023-02-15T07:27:39.356Z,62.22
2023-02-15T07:30:08.991Z,60.80
2023-02-15T07:32:36.049Z,67.63
2023-02-15T07:35:03.065Z,78.38
2023-02-15T07:37:29.888Z,66.95
2023-02-15T07:39:56.643Z,70.80
2023-02-15T07:42:23.573Z,68.85
2023-02-15T07:44:51.645Z,64.30
2023-02-15T07:47:18.512Z,64.65
2023-02-15T07:49:46.086Z,69.13
2023-02-15T07:52:12.885Z,64.00
2023-02-15T07:54:39.692Z,66.85
2023-02-15T07:57:06.541Z,62.15
2023-02-15T07:59:33.316Z,66.05
2023-02-15T08:02:00.131Z,62.17
2023-02-15T08:04:26.902Z,60.50
2023-02-15T08:06:58.296Z,62.13
2023-02-15T08:09:25.102Z,61.00
2023-02-15T08:11:51.855Z,62.63
2023-02-15T08:14:25.541Z,62.50
2023-02-15T08:16:55.918Z,58.80
2023-02-15T08:19:24.015Z,58.33
2023-02-15T08:24:30.291Z,62.38
2023-02-15T08:26:57.920Z,64.75
2023-02-15T08:29:27.739Z,67.55
2023-02-15T08:31:59.679Z,63.85
2023-02-15T08:34:26.994Z,62.33
2023-02-15T08:36:53.787Z,59.30
2023-02-15T08:39:20.958Z,62.90
2023-02-15T08:41:49.206Z,62.67
2023-02-15T08:44:18.377Z,57.05
2023-02-15T08:46:46.268Z,63.20
2023-02-15T08:49:16.763Z,58.60
2023-02-15T08:51:43.854Z,63.45
2023-02-15T08:54:16.792Z,60.28
2023-02-15T08:56:45.025Z,58.35
2023-02-15T08:59:20.845Z,59.13
2023-02-15T09:01:49.486Z,61.15
2023-02-15T09:04:16.766Z,57.28
2023-02-15T09:06:46.985Z,60.53
2023-02-15T09:09:15.975Z,57.35
2023-02-15T09:11:45.767Z,57.55
2023-02-15T09:14:16.155Z,57.33
2023-02-15T09:16:47.328Z,58.95
2023-02-15T09:19:14.208Z,60.85
2023-02-15T09:21:41.421Z,60.83
2023-02-15T09:24:13.318Z,58.40
2023-02-15T09:26:43.500Z,58.10
2023-02-15T09:29:12.133Z,57.60
2023-02-15T09:31:45.203Z,59.78
2023-02-15T09:34:19.277Z,52.38
2023-02-15T09:36:47.570Z,57.50
2023-02-15T09:39:25.911Z,54.95
2023-02-15T09:42:14.120Z,53.60
2023-02-15T09:44:55.948Z,55.67
2023-02-15T09:47:45.613Z,51.45
2023-02-15T09:50:27.756Z,52.35
2023-02-15T09:53:35.661Z,56.17
2023-02-15T09:56:19.553Z,54.92
2023-02-15T09:59:25.452Z,58.90
2023-02-15T10:02:04.742Z,56.67
2023-02-15T10:04:58.166Z,54.33
2023-02-15T10:07:59.126Z,55.20
2023-02-15T10:10:56.024Z,54.53
2023-02-15T10:13:42.498Z,60.87
2023-02-15T10:16:45.655Z,63.42
2023-02-15T10:19:26.624Z,57.15
2023-02-15T10:22:23.166Z,57.15
2023-02-15T10:25:14.970Z,60.22
2023-02-15T10:27:50.116Z,60.75
2023-02-15T10:30:32.785Z,56.42
2023-02-15T10:33:09.826Z,53.80
2023-02-15T10:35:58.964Z,56.25
2023-02-15T10:38:41.262Z,55.85
2023-02-15T10:41:11.076Z,59.83
2023-02-15T10:44:25.943Z,57.00
2023-02-15T10:47:12.611Z,54.65
2023-02-15T10:50:03.365Z,54.17
2023-02-15T10:52:56.672Z,54.75
2023-02-15T10:55:43.671Z,57.15
2023-02-15T10:58:42.763Z,56.63
2023-02-15T11:01:40.367Z,52.67
2023-02-15T11:04:24.757Z,56.10
2023-02-15T11:06:56.502Z,59.28
2023-02-15T11:09:27.979Z,60.72
2023-02-15T11:12:00.486Z,59.15
2023-02-15T11:14:50.406Z,54.90
2023-02-15T11:17:26.653Z,55.70
2023-02-15T11:20:06.540Z,52.33
2023-02-15T11:22:34.676Z,55.72
2023-02-15T11:27:35.382Z,59.73
2023-02-15T11:30:14.461Z,52.78
2023-02-15T11:32:46.962Z,54.30
2023-02-15T11:35:38.065Z,62.30
2023-02-15T11:38:14.001Z,55.85
2023-02-15T11:40:50.425Z,56.92
2023-02-15T11:44:02.258Z,56.53
2023-02-15T11:46:33.814Z,55.58
2023-02-15T11:49:00.712Z,52.25
2023-02-15T11:51:29.904Z,56.03
2023-02-15T11:53:57.457Z,49.88
2023-02-15T11:56:26.343Z,51.17
2023-02-15T11:58:59.152Z,50.53
2023-02-15T12:01:35.272Z,50.45
2023-02-15T12:04:09.735Z,49.95
2023-02-15T12:06:47.769Z,44.55
2023-02-15T12:09:15.130Z,49.55
2023-02-15T12:11:42.330Z,43.90
2023-02-15T12:14:27.759Z,44.60
2023-02-15T12:17:14.600Z,41.13
2023-02-15T12:19:42.646Z,38.78
2023-02-15T12:22:28.262Z,37.63
2023-02-15T12:24:59.194Z,35.17
2023-02-15T12:27:31.903Z,33.03
2023-02-15T12:30:08.470Z,33.83
2023-02-15T12:32:47.363Z,30.40
2023-02-15T12:35:22.687Z,29.85
2023-02-15T12:37:56.096Z,28.73
2023-02-15T12:40:27.662Z,28.48
2023-02-15T12:42:56.111Z,24.70
2023-02-15T12:45:33.419Z,20.67
2023-02-15T12:48:20.495Z,16.88
2023-02-15T12:51:11.604Z,17.03
2023-02-15T12:53:39.364Z,14.88
2023-02-15T12:56:08.653Z,14.77
2023-02-15T12:58:40.550Z,14.43
2023-02-15T13:01:10.588Z,13.70
2023-02-15T13:03:40.507Z,12.63
2023-02-15T13:06:08.921Z,12.85
2023-02-15T13:08:48.637Z,13.48
2023-02-15T13:11:23.154Z,10.27
2023-02-15T13:13:54.916Z,10.55
2023-02-15T13:16:35.972Z,10.20
2023-02-15T13:19:40.555Z,9.77
2023-02-15T13:22:13.755Z,9.45
2023-02-15T13:24:48.404Z,9.85
2023-02-15T13:27:19.819Z,9.80
2023-02-15T13:29:55.320Z,9.65
2023-02-15T13:32:39.086Z,11.18
2023-02-15T13:35:10.390Z,9.07
2023-02-15T13:37:59.826Z,9.65
2023-02-15T13:40:30.948Z,9.70
2023-02-15T13:43:40.175Z,9.25
2023-02-15T13:46:30.840Z,10.93
2023-02-15T13:49:10.638Z,12.05
2023-02-15T13:51:56.216Z,12.98
2023-02-15T13:54:29.006Z,10.15
2023-02-15T13:57:23.927Z,10.15
2023-02-15T14:00:09.406Z,10.73
2023-02-15T14:03:40.684Z,9.32
2023-02-15T14:06:15.782Z,10.45
2023-02-15T14:09:06.963Z,9.90
2023-02-15T14:12:13.241Z,12.75
2023-02-15T14:14:43.359Z,10.30
2023-02-15T14:17:19.260Z,9.82
2023-02-15T14:19:46.854Z,10.68
2023-02-15T14:22:40.143Z,10.18
2023-02-15T14:25:18.114Z,9.57
2023-02-15T14:28:18.427Z,9.43
2023-02-15T14:30:51.634Z,10.05
2023-02-15T14:33:38.136Z,9.55
2023-02-15T14:36:08.231Z,9.48
2023-02-15T14:39:06.456Z,9.45
2023-02-15T14:41:51.186Z,9.57
2023-02-15T14:44:55.188Z,10.10
2023-02-15T14:47:47.840Z,8.57
2023-02-15T14:50:38.182Z,9.48
2023-02-15T14:53:40.167Z,10.77
2023-02-15T14:56:10.885Z,9.93
2023-02-15T14:58:57.206Z,10.00
2023-02-15T15:01:36.690Z,9.82
2023-02-15T15:04:14.366Z,11.20
2023-02-15T15:06:45.064Z,11.43
2023-02-15T15:09:20.672Z,10.75
2023-02-15T15:11:51.257Z,11.48
2023-02-15T15:14:33.417Z,10.70
2023-02-15T15:17:02.821Z,10.98
2023-02-15T15:19:54.176Z,10.65
2023-02-15T15:22:29.850Z,11.00
2023-02-15T15:24:59.595Z,14.00
2023-02-15T15:27:48.653Z,11.77
2023-02-15T15:30:18.337Z,11.52
2023-02-15T15:32:57.359Z,12.88
2023-02-15T15:36:03.620Z,11.63
2023-02-15T15:38:49.515Z,14.18
2023-02-15T15:41:29.138Z,15.52
2023-02-15T15:44:22.049Z,13.25
2023-02-15T15:47:05.630Z,13.52
2023-02-15T15:49:35.839Z,14.82
2023-02-15T15:52:09.774Z,13.75
2023-02-15T15:54:41.133Z,11.70
2023-02-15T15:57:20.281Z,12.80
2023-02-15T15:59:48.062Z,12.77
2023-02-15T16:02:19.497Z,9.93
2023-02-15T16:04:48.681Z,10.00
2023-02-15T16:07:18.635Z,11.65
2023-02-15T16:09:59.180Z,9.48
2023-02-15T16:12:32.707Z,9.00
2023-02-15T16:15:14.284Z,10.02
2023-02-15T16:17:43.478Z,11.88
2023-02-15T16:20:27.284Z,12.20
2023-02-15T16:23:00.011Z,10.02
2023-02-15T16:25:41.408Z,11.75
2023-02-15T16:28:15.186Z,12.50
2023-02-15T16:30:43.717Z,12.52
2023-02-15T16:33:18.112Z,10.43
2023-02-15T16:36:00.003Z,10.52
2023-02-15T16:38:45.467Z,13.18
2023-02-15T16:41:20.202Z,11.15
2023-02-15T16:43:49.857Z,11.45
2023-02-15T16:46:28.831Z,13.02
2023-02-15T16:48:59.560Z,11.88
2023-02-15T16:51:30.434Z,13.82
2023-02-15T16:54:03.984Z,12.77
2023-02-15T16:56:32.036Z,12.50
2023-02-15T16:59:00.236Z,11.77
2023-02-15T17:04:22.880Z,12.73
2023-02-15T17:07:17.746Z,13.02
2023-02-15T17:09:52.104Z,25.33
2023-02-15T17:12:47.919Z,20.17
2023-02-15T17:15:35.650Z,15.35
2023-02-15T17:18:17.475Z,14.70
2023-02-15T17:20:45.897Z,15.38
2023-02-15T17:23:36.081Z,18.52
2023-02-15T17:26:16.522Z,18.77
2023-02-15T17:28:51.079Z,16.48
2023-02-15T17:31:21.009Z,17.52
2023-02-15T17:33:51.380Z,14.55
2023-02-15T17:36:22.877Z,21.33
2023-02-15T17:38:58.822Z,22.20
2023-02-15T17:41:30.459Z,18.42
2023-02-15T17:43:58.359Z,18.38
2023-02-15T17:46:26.475Z,19.08
2023-02-15T17:51:32.901Z,17.88
2023-02-15T17:54:29.884Z,18.90
2023-02-15T17:57:04.094Z,17.58
2023-02-15T17:59:34.951Z,21.35
2023-02-15T18:02:21.104Z,18.00
2023-02-15T18:05:10.986Z,18.02
2023-02-15T18:07:58.089Z,16.95
2023-02-15T18:10:46.013Z,20.15
2023-02-15T18:13:13.537Z,18.85
2023-02-15T18:15:40.896Z,20.67
2023-02-15T18:18:13.260Z,20.10
2023-02-15T18:20:44.072Z,17.52
2023-02-15T18:23:15.272Z,16.83
2023-02-15T18:25:45.085Z,16.85
2023-02-15T18:28:15.035Z,19.33
2023-02-15T18:30:43.354Z,15.25
2023-02-15T18:33:40.186Z,13.75
2023-02-15T18:36:13.345Z,14.13
2023-02-15T18:38:40.697Z,16.58
2023-02-15T18:41:08.636Z,16.53
2023-02-15T18:43:37.024Z,15.13
2023-02-15T18:46:04.815Z,18.38
2023-02-15T18:48:32.671Z,16.52
2023-02-15T18:51:01.594Z,16.50
2023-02-15T18:53:29.345Z,18.35
2023-02-15T18:58:25.788Z,20.83
2023-02-15T19:00:55.763Z,22.50
2023-02-15T19:03:23.184Z,18.48
2023-02-15T19:05:50.486Z,20.92
2023-02-15T19:08:24.643Z,18.05
2023-02-15T19:10:52.362Z,19.83
2023-02-15T19:13:19.942Z,16.55
2023-02-15T19:15:47.415Z,16.90
2023-02-15T19:18:14.507Z,16.20
2023-02-15T19:20:46.627Z,18.50
2023-02-15T19:23:19.499Z,15.55
2023-02-15T19:25:48.242Z,15.63
2023-02-15T19:28:34.221Z,16.45
2023-02-15T19:31:01.642Z,16.27
2023-02-15T19:33:29.155Z,16.42
2023-02-15T19:35:57.803Z,16.08
2023-02-15T19:38:37.000Z,19.35
2023-02-15T19:41:11.456Z,33.45
2023-02-15T19:43:40.721Z,24.23
2023-02-15T19:46:16.929Z,17.55
2023-02-15T19:48:44.002Z,16.13
2023-02-15T19:51:14.146Z,13.98
2023-02-15T19:53:41.448Z,12.15
2023-02-15T19:56:18.290Z,9.57
2023-02-15T19:58:45.353Z,14.13
2023-02-15T20:01:15.097Z,16.33
2023-02-15T20:03:42.204Z,14.57
2023-02-15T20:06:17.143Z,16.75
2023-02-15T20:08:44.844Z,16.40
2023-02-15T20:11:13.238Z,16.58
2023-02-15T20:13:40.623Z,18.13
2023-02-15T20:16:10.457Z,18.90
2023-02-15T20:18:37.738Z,20.67
2023-02-15T20:21:05.697Z,21.50
2023-02-15T20:23:35.838Z,18.65
2023-02-15T20:26:18.241Z,25.55
2023-02-15T20:28:46.377Z,24.27
2023-02-15T20:31:20.614Z,22.60
2023-02-15T20:33:51.008Z,23.00
2023-02-15T20:36:22.970Z,21.15
2023-02-15T20:38:50.566Z,22.27
2023-02-15T20:41:39.031Z,25.48
2023-02-15T20:44:28.505Z,20.48
2023-02-15T20:46:58.004Z,17.80
2023-02-15T20:49:26.898Z,18.35
2023-02-15T20:51:55.388Z,15.77
2023-02-15T20:54:28.904Z,18.05
2023-02-15T20:56:59.045Z,18.17
2023-02-15T20:59:30.559Z,17.48
2023-02-15T21:02:19.362Z,16.73
2023-02-15T21:04:46.727Z,18.67
2023-02-15T21:07:27.214Z,21.02
2023-02-15T21:35:51.501Z,19.63
2023-02-15T21:38:27.664Z,19.85
2023-02-15T21:41:18.924Z,17.60
2023-02-15T21:44:08.498Z,18.88
2023-02-15T21:46:48.132Z,18.08
2023-02-15T21:49:18.504Z,29.00
2023-02-15T21:52:09.670Z,24.25
2023-02-15T21:54:42.486Z,22.75
2023-02-15T21:57:22.127Z,19.23
2023-02-15T21:59:51.282Z,17.73
2023-02-15T22:02:32.073Z,18.38
2023-02-15T22:05:02.070Z,17.67
2023-02-15T22:07:34.772Z,19.25
2023-02-15T22:10:07.536Z,23.60
2023-02-15T22:12:38.951Z,26.30
2023-02-15T22:20:54.210Z,29.35
2023-02-15T22:23:26.850Z,32.13
2023-02-15T22:28:46.981Z,33.28
2023-02-15T22:31:18.805Z,39.08
2023-02-15T22:33:50.324Z,37.35
2023-02-15T22:36:29.256Z,41.03
2023-02-15T22:39:00.623Z,39.17
2023-02-15T22:41:34.028Z,35.83
2023-02-15T22:44:01.319Z,36.08
2023-02-15T22:46:29.119Z,36.85
2023-02-15T22:48:56.942Z,35.63
2023-02-15T22:51:26.533Z,37.67
2023-02-15T22:53:54.799Z,29.40
2023-02-15T22:59:02.215Z,36.42
2023-02-15T23:01:34.900Z,37.17
2023-02-15T23:04:03.987Z,38.42
2023-02-15T23:06:32.045Z,35.63
2023-02-15T23:09:00.830Z,31.40
2023-02-15T23:11:28.376Z,32.28
2023-02-15T23:13:55.440Z,33.38
2023-02-15T23:16:23.422Z,31.10
2023-02-15T23:21:28.058Z,37.23
2023-02-15T23:24:00.968Z,39.95
2023-02-15T23:26:31.246Z,40.47
2023-02-15T23:29:00.471Z,43.22
2023-02-15T23:31:40.259Z,42.47
2023-02-15T23:34:16.392Z,42.70
2023-02-15T23:36:44.784Z,47.42
2023-02-15T23:39:39.597Z,44.25
2023-02-15T23:42:30.625Z,46.58
2023-02-15T23:44:58.167Z,50.88
2023-02-15T23:47:49.032Z,44.03
2023-02-15T23:50:20.302Z,37.30
2023-02-15T23:52:49.285Z,33.30
2023-02-15T23:55:17.746Z,36.30
2023-02-15T23:57:45.570Z,37.95
